sensor_id;sensor_type;location;lat;lon;timestamp;temperature;humidity
21033;DHT22;10675;47.976;7.824;2024-01-30T00:00:00;6.70;94.80
21033;DHT22;10675;47.976;7.824;2024-01-30T00:02:25;6.70;94.90
21033;DHT22;10675;47.976;7.824;2024-01-30T00:04:51;6.60;94.90
21033;DHT22;10675;47.976;7.824;2024-01-30T00:07:17;6.50;94.90
21033;DHT22;10675;47.976;7.824;2024-01-30T00:09:42;6.40;96.10
21033;DHT22;10675;47.976;7.824;2024-01-30T00:12:08;6.40;95.90
21033;DHT22;10675;47.976;7.824;2024-01-30T00:14:33;6.40;96.50
21033;DHT22;10675;47.976;7.824;2024-01-30T00:16:59;6.40;96.20
21033;DHT22;10675;47.976;7.824;2024-01-30T00:19:24;6.30;95.90
21033;DHT22;10675;47.976;7.824;2024-01-30T00:21:50;6.40;95.60
21033;DHT22;10675;47.976;7.824;2024-01-30T00:24:15;6.40;95.70
21033;DHT22;10675;47.976;7.824;2024-01-30T00:26:41;6.40;95.70
21033;DHT22;10675;47.976;7.824;2024-01-30T00:29:06;6.40;96.30
21033;DHT22;10675;47.976;7.824;2024-01-30T00:31:32;6.30;96.20
21033;DHT22;10675;47.976;7.824;2024-01-30T00:33:57;6.30;96.50
21033;DHT22;10675;47.976;7.824;2024-01-30T00:36:23;6.20;96.30
21033;DHT22;10675;47.976;7.824;2024-01-30T00:38:48;6.20;96.10
21033;DHT22;10675;47.976;7.824;2024-01-30T00:41:14;6.30;95.90
21033;DHT22;10675;47.976;7.824;2024-01-30T00:43:42;6.40;95.60
21033;DHT22;10675;47.976;7.824;2024-01-30T00:46:08;6.40;95.30
21033;DHT22;10675;47.976;7.824;2024-01-30T00:48:33;6.40;95.30
21033;DHT22;10675;47.976;7.824;2024-01-30T00:50:59;6.40;95.30
21033;DHT22;10675;47.976;7.824;2024-01-30T00:53:24;6.40;95.20
21033;DHT22;10675;47.976;7.824;2024-01-30T00:55:50;6.50;95.00
21033;DHT22;10675;47.976;7.824;2024-01-30T00:58:15;6.50;94.80
21033;DHT22;10675;47.976;7.824;2024-01-30T01:00:41;6.50;94.60
21033;DHT22;10675;47.976;7.824;2024-01-30T01:03:06;6.50;94.70
21033;DHT22;10675;47.976;7.824;2024-01-30T01:05:32;6.50;94.70
21033;DHT22;10675;47.976;7.824;2024-01-30T01:07:58;6.40;94.80
21033;DHT22;10675;47.976;7.824;2024-01-30T01:10:23;6.50;94.70
21033;DHT22;10675;47.976;7.824;2024-01-30T01:12:49;6.60;94.40
21033;DHT22;10675;47.976;7.824;2024-01-30T01:15:15;6.60;94.50
21033;DHT22;10675;47.976;7.824;2024-01-30T01:17:40;6.60;94.20
21033;DHT22;10675;47.976;7.824;2024-01-30T01:20:07;6.60;94.10
21033;DHT22;10675;47.976;7.824;2024-01-30T01:22:32;6.60;94.00
21033;DHT22;10675;47.976;7.824;2024-01-30T01:24:59;6.60;93.90
21033;DHT22;10675;47.976;7.824;2024-01-30T01:27:25;6.70;93.60
21033;DHT22;10675;47.976;7.824;2024-01-30T01:29:51;6.70;93.60
21033;DHT22;10675;47.976;7.824;2024-01-30T01:32:16;6.70;93.50
21033;DHT22;10675;47.976;7.824;2024-01-30T01:34:42;6.40;93.50
21033;DHT22;10675;47.976;7.824;2024-01-30T01:37:08;6.70;93.50
21033;DHT22;10675;47.976;7.824;2024-01-30T01:39:33;6.80;93.40
21033;DHT22;10675;47.976;7.824;2024-01-30T01:41:59;6.80;93.00
21033;DHT22;10675;47.976;7.824;2024-01-30T01:44:24;6.90;92.80
21033;DHT22;10675;47.976;7.824;2024-01-30T01:46:51;6.90;92.60
21033;DHT22;10675;47.976;7.824;2024-01-30T01:49:18;7.00;92.20
21033;DHT22;10675;47.976;7.824;2024-01-30T01:51:45;7.10;91.80
21033;DHT22;10675;47.976;7.824;2024-01-30T01:54:14;7.10;91.70
21033;DHT22;10675;47.976;7.824;2024-01-30T01:56:40;7.00;92.40
21033;DHT22;10675;47.976;7.824;2024-01-30T01:59:07;7.00;92.10
21033;DHT22;10675;47.976;7.824;2024-01-30T02:01:34;7.20;91.40
21033;DHT22;10675;47.976;7.824;2024-01-30T02:04:00;7.20;91.50
21033;DHT22;10675;47.976;7.824;2024-01-30T02:06:26;7.10;91.90
21033;DHT22;10675;47.976;7.824;2024-01-30T02:08:52;7.00;92.20
21033;DHT22;10675;47.976;7.824;2024-01-30T02:11:18;6.90;92.40
21033;DHT22;10675;47.976;7.824;2024-01-30T02:13:45;6.90;92.80
21033;DHT22;10675;47.976;7.824;2024-01-30T02:16:10;6.80;93.00
21033;DHT22;10675;47.976;7.824;2024-01-30T02:18:36;6.70;93.40
21033;DHT22;10675;47.976;7.824;2024-01-30T02:21:07;6.60;93.70
21033;DHT22;10675;47.976;7.824;2024-01-30T02:23:33;6.60;94.20
21033;DHT22;10675;47.976;7.824;2024-01-30T02:26:00;6.50;94.30
21033;DHT22;10675;47.976;7.824;2024-01-30T02:28:25;6.50;94.80
21033;DHT22;10675;47.976;7.824;2024-01-30T02:30:51;6.50;94.80
21033;DHT22;10675;47.976;7.824;2024-01-30T02:33:16;6.50;94.80
21033;DHT22;10675;47.976;7.824;2024-01-30T02:35:42;6.40;94.90
21033;DHT22;10675;47.976;7.824;2024-01-30T02:38:08;6.40;95.20
21033;DHT22;10675;47.976;7.824;2024-01-30T02:40:33;6.30;95.40
21033;DHT22;10675;47.976;7.824;2024-01-30T02:42:59;6.20;96.00
21033;DHT22;10675;47.976;7.824;2024-01-30T02:45:25;6.20;96.10
21033;DHT22;10675;47.976;7.824;2024-01-30T02:47:51;6.20;96.40
21033;DHT22;10675;47.976;7.824;2024-01-30T02:50:16;6.10;96.90
21033;DHT22;10675;47.976;7.824;2024-01-30T02:52:42;6.00;97.10
21033;DHT22;10675;47.976;7.824;2024-01-30T02:55:11;6.00;97.20
21033;DHT22;10675;47.976;7.824;2024-01-30T02:57:37;6.00;97.40
21033;DHT22;10675;47.976;7.824;2024-01-30T03:00:03;6.00;97.90
21033;DHT22;10675;47.976;7.824;2024-01-30T03:02:31;5.90;98.10
21033;DHT22;10675;47.976;7.824;2024-01-30T03:04:56;5.80;98.40
21033;DHT22;10675;47.976;7.824;2024-01-30T03:07:22;5.70;98.70
21033;DHT22;10675;47.976;7.824;2024-01-30T03:09:47;5.70;99.10
21033;DHT22;10675;47.976;7.824;2024-01-30T03:12:13;5.70;99.30
21033;DHT22;10675;47.976;7.824;2024-01-30T03:14:39;5.70;99.20
21033;DHT22;10675;47.976;7.824;2024-01-30T03:17:04;5.70;99.20
21033;DHT22;10675;47.976;7.824;2024-01-30T03:19:30;5.70;98.90
21033;DHT22;10675;47.976;7.824;2024-01-30T03:21:55;5.80;98.60
21033;DHT22;10675;47.976;7.824;2024-01-30T03:24:21;5.90;98.30
21033;DHT22;10675;47.976;7.824;2024-01-30T03:26:46;6.00;97.40
21033;DHT22;10675;47.976;7.824;2024-01-30T03:29:12;6.10;96.70
21033;DHT22;10675;47.976;7.824;2024-01-30T03:31:38;6.20;96.50
21033;DHT22;10675;47.976;7.824;2024-01-30T03:34:04;6.20;96.50
21033;DHT22;10675;47.976;7.824;2024-01-30T03:36:29;6.20;96.60
21033;DHT22;10675;47.976;7.824;2024-01-30T03:38:58;6.20;96.40
21033;DHT22;10675;47.976;7.824;2024-01-30T03:41:23;6.70;96.50
21033;DHT22;10675;47.976;7.824;2024-01-30T03:43:49;6.20;96.50
21033;DHT22;10675;47.976;7.824;2024-01-30T03:46:14;6.20;96.70
21033;DHT22;10675;47.976;7.824;2024-01-30T03:48:40;6.20;96.70
21033;DHT22;10675;47.976;7.824;2024-01-30T03:51:05;6.10;97.00
21033;DHT22;10675;47.976;7.824;2024-01-30T03:53:31;6.40;97.20
21033;DHT22;10675;47.976;7.824;2024-01-30T03:55:57;6.10;97.10
21033;DHT22;10675;47.976;7.824;2024-01-30T03:58:22;6.10;97.10
21033;DHT22;10675;47.976;7.824;2024-01-30T04:00:48;6.10;97.30
21033;DHT22;10675;47.976;7.824;2024-01-30T04:03:17;6.10;97.30
21033;DHT22;10675;47.976;7.824;2024-01-30T04:05:43;6.00;97.60
21033;DHT22;10675;47.976;7.824;2024-01-30T04:08:09;6.00;97.60
21033;DHT22;10675;47.976;7.824;2024-01-30T04:10:34;6.10;97.50
21033;DHT22;10675;47.976;7.824;2024-01-30T04:13:00;6.10;97.40
21033;DHT22;10675;47.976;7.824;2024-01-30T04:15:26;6.20;97.20
21033;DHT22;10675;47.976;7.824;2024-01-30T04:17:51;6.30;97.00
21033;DHT22;10675;47.976;7.824;2024-01-30T04:20:17;6.30;96.80
21033;DHT22;10675;47.976;7.824;2024-01-30T04:22:44;6.40;96.90
21033;DHT22;10675;47.976;7.824;2024-01-30T04:25:10;6.70;95.80
21033;DHT22;10675;47.976;7.824;2024-01-30T04:27:36;7.00;94.70
21033;DHT22;10675;47.976;7.824;2024-01-30T04:30:01;7.50;93.70
21033;DHT22;10675;47.976;7.824;2024-01-30T04:32:27;7.80;92.80
21033;DHT22;10675;47.976;7.824;2024-01-30T04:34:52;8.00;92.30
21033;DHT22;10675;47.976;7.824;2024-01-30T04:37:18;8.20;91.50
21033;DHT22;10675;47.976;7.824;2024-01-30T04:39:43;8.60;90.50
21033;DHT22;10675;47.976;7.824;2024-01-30T04:42:09;8.60;90.10
21033;DHT22;10675;47.976;7.824;2024-01-30T04:44:34;8.70;89.90
21033;DHT22;10675;47.976;7.824;2024-01-30T04:47:00;8.80;88.80
21033;DHT22;10675;47.976;7.824;2024-01-30T04:49:27;8.80;88.30
21033;DHT22;10675;47.976;7.824;2024-01-30T04:51:53;8.90;87.60
21033;DHT22;10675;47.976;7.824;2024-01-30T04:54:18;9.00;87.00
21033;DHT22;10675;47.976;7.824;2024-01-30T04:56:44;9.00;86.70
21033;DHT22;10675;47.976;7.824;2024-01-30T04:59:09;9.00;86.30
21033;DHT22;10675;47.976;7.824;2024-01-30T05:01:35;9.20;85.20
21033;DHT22;10675;47.976;7.824;2024-01-30T05:04:00;9.20;84.40
21033;DHT22;10675;47.976;7.824;2024-01-30T05:06:27;9.30;83.80
21033;DHT22;10675;47.976;7.824;2024-01-30T05:08:52;9.30;83.40
21033;DHT22;10675;47.976;7.824;2024-01-30T05:11:18;9.30;83.30
21033;DHT22;10675;47.976;7.824;2024-01-30T05:13:44;9.20;83.50
21033;DHT22;10675;47.976;7.824;2024-01-30T05:16:09;9.20;83.80
21033;DHT22;10675;47.976;7.824;2024-01-30T05:18:35;9.20;82.90
21033;DHT22;10675;47.976;7.824;2024-01-30T05:21:01;9.30;82.70
21033;DHT22;10675;47.976;7.824;2024-01-30T05:23:27;9.20;85.50
21033;DHT22;10675;47.976;7.824;2024-01-30T05:25:52;9.30;86.30
21033;DHT22;10675;47.976;7.824;2024-01-30T05:28:18;9.20;84.90
21033;DHT22;10675;47.976;7.824;2024-01-30T05:30:43;9.20;84.40
21033;DHT22;10675;47.976;7.824;2024-01-30T05:33:09;9.30;84.60
21033;DHT22;10675;47.976;7.824;2024-01-30T05:35:37;9.30;84.10
21033;DHT22;10675;47.976;7.824;2024-01-30T05:38:03;9.20;83.50
21033;DHT22;10675;47.976;7.824;2024-01-30T05:40:29;8.90;84.00
21033;DHT22;10675;47.976;7.824;2024-01-30T05:42:55;8.80;84.60
21033;DHT22;10675;47.976;7.824;2024-01-30T05:45:21;8.60;85.50
21033;DHT22;10675;47.976;7.824;2024-01-30T05:47:48;8.60;86.00
21033;DHT22;10675;47.976;7.824;2024-01-30T05:50:14;8.60;86.00
21033;DHT22;10675;47.976;7.824;2024-01-30T05:52:40;8.60;85.30
21033;DHT22;10675;47.976;7.824;2024-01-30T05:55:06;8.50;86.00
21033;DHT22;10675;47.976;7.824;2024-01-30T05:57:31;8.60;86.00
21033;DHT22;10675;47.976;7.824;2024-01-30T05:59:57;8.40;86.90
21033;DHT22;10675;47.976;7.824;2024-01-30T06:02:23;8.30;87.70
21033;DHT22;10675;47.976;7.824;2024-01-30T06:04:48;8.10;88.30
21033;DHT22;10675;47.976;7.824;2024-01-30T06:07:14;8.00;89.00
21033;DHT22;10675;47.976;7.824;2024-01-30T06:09:39;7.90;89.60
21033;DHT22;10675;47.976;7.824;2024-01-30T06:12:06;8.00;90.10
21033;DHT22;10675;47.976;7.824;2024-01-30T06:14:32;8.70;87.10
21033;DHT22;10675;47.976;7.824;2024-01-30T06:16:58;8.70;86.60
21033;DHT22;10675;47.976;7.824;2024-01-30T06:19:24;9.20;84.80
21033;DHT22;10675;47.976;7.824;2024-01-30T06:21:50;9.10;84.50
21033;DHT22;10675;47.976;7.824;2024-01-30T06:24:15;9.10;84.80
21033;DHT22;10675;47.976;7.824;2024-01-30T06:26:41;8.70;86.40
21033;DHT22;10675;47.976;7.824;2024-01-30T06:29:06;8.40;88.40
21033;DHT22;10675;47.976;7.824;2024-01-30T06:31:32;8.20;88.90
21033;DHT22;10675;47.976;7.824;2024-01-30T06:33:58;8.20;89.30
21033;DHT22;10675;47.976;7.824;2024-01-30T06:36:23;8.30;89.40
21033;DHT22;10675;47.976;7.824;2024-01-30T06:38:49;8.40;88.80
21033;DHT22;10675;47.976;7.824;2024-01-30T06:41:14;8.80;87.30
21033;DHT22;10675;47.976;7.824;2024-01-30T06:43:40;9.10;86.10
21033;DHT22;10675;47.976;7.824;2024-01-30T06:46:06;9.30;85.10
21033;DHT22;10675;47.976;7.824;2024-01-30T06:48:31;9.40;84.30
21033;DHT22;10675;47.976;7.824;2024-01-30T06:50:57;9.40;84.40
21033;DHT22;10675;47.976;7.824;2024-01-30T06:53:23;9.30;84.60
21033;DHT22;10675;47.976;7.824;2024-01-30T06:55:48;9.30;84.60
21033;DHT22;10675;47.976;7.824;2024-01-30T06:58:14;9.20;84.90
21033;DHT22;10675;47.976;7.824;2024-01-30T07:00:40;9.10;85.50
21033;DHT22;10675;47.976;7.824;2024-01-30T07:03:05;9.30;89.10
21033;DHT22;10675;47.976;7.824;2024-01-30T07:05:31;9.40;85.80
21033;DHT22;10675;47.976;7.824;2024-01-30T07:07:57;9.40;85.50
21033;DHT22;10675;47.976;7.824;2024-01-30T07:10:22;9.40;86.10
21033;DHT22;10675;47.976;7.824;2024-01-30T07:12:48;9.50;85.90
21033;DHT22;10675;47.976;7.824;2024-01-30T07:15:13;9.50;84.60
21033;DHT22;10675;47.976;7.824;2024-01-30T07:17:43;9.40;86.80
21033;DHT22;10675;47.976;7.824;2024-01-30T07:20:09;9.80;86.00
21033;DHT22;10675;47.976;7.824;2024-01-30T07:22:34;9.60;84.60
21033;DHT22;10675;47.976;7.824;2024-01-30T07:25:00;9.60;85.30
21033;DHT22;10675;47.976;7.824;2024-01-30T07:27:26;9.60;84.30
21033;DHT22;10675;47.976;7.824;2024-01-30T07:29:51;9.60;83.60
21033;DHT22;10675;47.976;7.824;2024-01-30T07:32:17;9.60;83.90
21033;DHT22;10675;47.976;7.824;2024-01-30T07:34:43;9.60;83.70
21033;DHT22;10675;47.976;7.824;2024-01-30T07:37:09;9.60;83.60
21033;DHT22;10675;47.976;7.824;2024-01-30T07:39:36;9.60;83.80
21033;DHT22;10675;47.976;7.824;2024-01-30T07:42:01;9.60;83.60
21033;DHT22;10675;47.976;7.824;2024-01-30T07:44:27;9.60;83.30
21033;DHT22;10675;47.976;7.824;2024-01-30T07:46:52;9.60;83.30
21033;DHT22;10675;47.976;7.824;2024-01-30T07:49:18;9.70;83.10
21033;DHT22;10675;47.976;7.824;2024-01-30T07:51:43;9.90;82.00
21033;DHT22;10675;47.976;7.824;2024-01-30T07:54:10;10.00;82.20
21033;DHT22;10675;47.976;7.824;2024-01-30T07:56:35;10.10;81.60
21033;DHT22;10675;47.976;7.824;2024-01-30T07:59:01;10.10;81.90
21033;DHT22;10675;47.976;7.824;2024-01-30T08:01:26;10.10;81.80
21033;DHT22;10675;47.976;7.824;2024-01-30T08:03:53;10.10;81.60
21033;DHT22;10675;47.976;7.824;2024-01-30T08:06:18;10.20;81.70
21033;DHT22;10675;47.976;7.824;2024-01-30T08:08:45;10.30;81.20
21033;DHT22;10675;47.976;7.824;2024-01-30T08:11:10;10.40;80.20
21033;DHT22;10675;47.976;7.824;2024-01-30T08:13:36;10.60;80.40
21033;DHT22;10675;47.976;7.824;2024-01-30T08:16:01;10.70;80.90
21033;DHT22;10675;47.976;7.824;2024-01-30T08:18:27;10.70;80.50
21033;DHT22;10675;47.976;7.824;2024-01-30T08:20:52;10.90;79.80
21033;DHT22;10675;47.976;7.824;2024-01-30T08:23:18;11.00;79.40
21033;DHT22;10675;47.976;7.824;2024-01-30T08:25:44;11.20;79.00
21033;DHT22;10675;47.976;7.824;2024-01-30T08:28:09;11.20;78.70
21033;DHT22;10675;47.976;7.824;2024-01-30T08:30:35;11.20;78.20
21033;DHT22;10675;47.976;7.824;2024-01-30T08:33:01;11.20;78.40
21033;DHT22;10675;47.976;7.824;2024-01-30T08:35:26;11.30;78.10
21033;DHT22;10675;47.976;7.824;2024-01-30T08:37:52;11.30;77.60
21033;DHT22;10675;47.976;7.824;2024-01-30T08:40:17;11.30;77.40
21033;DHT22;10675;47.976;7.824;2024-01-30T08:42:43;11.30;77.50
21033;DHT22;10675;47.976;7.824;2024-01-30T08:45:09;11.40;76.60
21033;DHT22;10675;47.976;7.824;2024-01-30T08:47:34;11.50;75.90
21033;DHT22;10675;47.976;7.824;2024-01-30T08:50:00;11.50;75.70
21033;DHT22;10675;47.976;7.824;2024-01-30T08:52:26;11.50;75.10
21033;DHT22;10675;47.976;7.824;2024-01-30T08:54:51;11.60;75.00
21033;DHT22;10675;47.976;7.824;2024-01-30T08:57:17;11.60;74.10
21033;DHT22;10675;47.976;7.824;2024-01-30T08:59:42;11.60;73.10
21033;DHT22;10675;47.976;7.824;2024-01-30T09:02:11;11.70;73.50
21033;DHT22;10675;47.976;7.824;2024-01-30T09:04:38;11.70;73.60
21033;DHT22;10675;47.976;7.824;2024-01-30T09:07:04;11.70;73.10
21033;DHT22;10675;47.976;7.824;2024-01-30T09:09:33;11.80;73.00
21033;DHT22;10675;47.976;7.824;2024-01-30T09:11:59;11.80;71.40
21033;DHT22;10675;47.976;7.824;2024-01-30T09:14:29;11.90;70.20
21033;DHT22;10675;47.976;7.824;2024-01-30T09:16:56;12.00;69.40
21033;DHT22;10675;47.976;7.824;2024-01-30T09:19:21;12.00;69.30
21033;DHT22;10675;47.976;7.824;2024-01-30T09:21:47;12.00;69.20
21033;DHT22;10675;47.976;7.824;2024-01-30T09:24:12;12.10;67.70
21033;DHT22;10675;47.976;7.824;2024-01-30T09:26:38;12.10;68.40
21033;DHT22;10675;47.976;7.824;2024-01-30T09:29:03;12.10;68.00
21033;DHT22;10675;47.976;7.824;2024-01-30T09:31:29;12.00;67.80
21033;DHT22;10675;47.976;7.824;2024-01-30T09:33:54;12.10;68.50
21033;DHT22;10675;47.976;7.824;2024-01-30T09:36:20;12.30;76.30
21033;DHT22;10675;47.976;7.824;2024-01-30T09:38:46;12.10;67.20
21033;DHT22;10675;47.976;7.824;2024-01-30T09:41:12;12.10;66.50
21033;DHT22;10675;47.976;7.824;2024-01-30T09:43:38;12.10;67.00
21033;DHT22;10675;47.976;7.824;2024-01-30T09:46:09;12.10;66.90
21033;DHT22;10675;47.976;7.824;2024-01-30T09:48:37;12.10;65.70
21033;DHT22;10675;47.976;7.824;2024-01-30T09:51:03;12.20;66.60
21033;DHT22;10675;47.976;7.824;2024-01-30T09:53:29;12.10;65.90
21033;DHT22;10675;47.976;7.824;2024-01-30T09:55:54;11.90;66.50
21033;DHT22;10675;47.976;7.824;2024-01-30T09:58:20;12.20;66.80
21033;DHT22;10675;47.976;7.824;2024-01-30T10:00:45;12.10;66.60
21033;DHT22;10675;47.976;7.824;2024-01-30T10:03:11;12.10;66.40
21033;DHT22;10675;47.976;7.824;2024-01-30T10:05:38;12.10;66.20
21033;DHT22;10675;47.976;7.824;2024-01-30T10:08:07;12.20;65.80
21033;DHT22;10675;47.976;7.824;2024-01-30T10:10:35;12.20;65.40
21033;DHT22;10675;47.976;7.824;2024-01-30T10:13:01;12.30;64.60
21033;DHT22;10675;47.976;7.824;2024-01-30T10:15:28;12.30;64.20
21033;DHT22;10675;47.976;7.824;2024-01-30T10:17:54;12.30;64.50
21033;DHT22;10675;47.976;7.824;2024-01-30T10:20:20;12.30;64.80
21033;DHT22;10675;47.976;7.824;2024-01-30T10:22:47;12.20;64.40
21033;DHT22;10675;47.976;7.824;2024-01-30T10:25:13;12.30;63.80
21033;DHT22;10675;47.976;7.824;2024-01-30T10:27:42;12.40;62.60
21033;DHT22;10675;47.976;7.824;2024-01-30T10:30:08;12.50;62.90
21033;DHT22;10675;47.976;7.824;2024-01-30T10:32:33;12.50;61.70
21033;DHT22;10675;47.976;7.824;2024-01-30T10:34:59;12.60;62.70
21033;DHT22;10675;47.976;7.824;2024-01-30T10:37:25;12.60;60.90
21033;DHT22;10675;47.976;7.824;2024-01-30T10:39:53;12.70;60.90
21033;DHT22;10675;47.976;7.824;2024-01-30T10:42:20;12.70;60.40
21033;DHT22;10675;47.976;7.824;2024-01-30T10:47:21;12.80;59.90
21033;DHT22;10675;47.976;7.824;2024-01-30T10:49:49;12.80;59.30
21033;DHT22;10675;47.976;7.824;2024-01-30T10:52:16;12.90;58.40
21033;DHT22;10675;47.976;7.824;2024-01-30T10:54:44;12.90;57.20
21033;DHT22;10675;47.976;7.824;2024-01-30T10:57:10;13.00;58.20
21033;DHT22;10675;47.976;7.824;2024-01-30T10:59:36;13.00;58.10
21033;DHT22;10675;47.976;7.824;2024-01-30T11:02:03;13.00;57.60
21033;DHT22;10675;47.976;7.824;2024-01-30T11:04:40;13.00;57.90
21033;DHT22;10675;47.976;7.824;2024-01-30T11:07:27;13.00;57.90
21033;DHT22;10675;47.976;7.824;2024-01-30T11:09:54;13.20;58.10
21033;DHT22;10675;47.976;7.824;2024-01-30T11:12:29;13.40;58.80
21033;DHT22;10675;47.976;7.824;2024-01-30T11:15:08;13.40;59.40
21033;DHT22;10675;47.976;7.824;2024-01-30T11:20:35;13.50;58.00
21033;DHT22;10675;47.976;7.824;2024-01-30T11:23:02;13.60;58.10
21033;DHT22;10675;47.976;7.824;2024-01-30T11:25:31;13.50;56.50
21033;DHT22;10675;47.976;7.824;2024-01-30T11:27:57;13.60;57.60
21033;DHT22;10675;47.976;7.824;2024-01-30T11:30:27;13.50;57.20
21033;DHT22;10675;47.976;7.824;2024-01-30T11:35:35;13.60;57.40
21033;DHT22;10675;47.976;7.824;2024-01-30T11:38:02;13.70;58.50
21033;DHT22;10675;47.976;7.824;2024-01-30T11:40:28;13.60;57.30
21033;DHT22;10675;47.976;7.824;2024-01-30T11:42:55;13.70;58.00
21033;DHT22;10675;47.976;7.824;2024-01-30T11:45:21;13.80;58.40
21033;DHT22;10675;47.976;7.824;2024-01-30T11:47:47;13.90;58.80
21033;DHT22;10675;47.976;7.824;2024-01-30T11:50:13;13.90;58.50
21033;DHT22;10675;47.976;7.824;2024-01-30T11:52:39;13.80;59.00
21033;DHT22;10675;47.976;7.824;2024-01-30T11:55:05;13.70;59.10
21033;DHT22;10675;47.976;7.824;2024-01-30T11:57:31;13.70;59.30
21033;DHT22;10675;47.976;7.824;2024-01-30T11:59:57;13.70;58.50
21033;DHT22;10675;47.976;7.824;2024-01-30T12:02:22;13.80;59.30
21033;DHT22;10675;47.976;7.824;2024-01-30T12:04:48;13.80;59.80
21033;DHT22;10675;47.976;7.824;2024-01-30T12:07:13;13.90;59.40
21033;DHT22;10675;47.976;7.824;2024-01-30T12:09:42;14.00;60.10
21033;DHT22;10675;47.976;7.824;2024-01-30T12:12:08;13.90;60.40
21033;DHT22;10675;47.976;7.824;2024-01-30T12:14:38;13.90;60.70
21033;DHT22;10675;47.976;7.824;2024-01-30T12:17:04;14.00;61.80
21033;DHT22;10675;47.976;7.824;2024-01-30T12:19:30;13.50;62.10
21033;DHT22;10675;47.976;7.824;2024-01-30T12:21:56;13.80;63.30
21033;DHT22;10675;47.976;7.824;2024-01-30T12:24:25;13.70;64.50
21033;DHT22;10675;47.976;7.824;2024-01-30T12:26:50;13.80;65.80
21033;DHT22;10675;47.976;7.824;2024-01-30T12:29:17;13.70;65.30
21033;DHT22;10675;47.976;7.824;2024-01-30T12:31:43;13.80;65.80
21033;DHT22;10675;47.976;7.824;2024-01-30T12:34:09;13.80;66.00
21033;DHT22;10675;47.976;7.824;2024-01-30T12:36:35;13.80;67.30
21033;DHT22;10675;47.976;7.824;2024-01-30T12:39:01;13.80;67.50
21033;DHT22;10675;47.976;7.824;2024-01-30T12:41:27;13.70;65.90
21033;DHT22;10675;47.976;7.824;2024-01-30T12:43:56;13.70;65.90
21033;DHT22;10675;47.976;7.824;2024-01-30T12:46:27;13.70;66.10
21033;DHT22;10675;47.976;7.824;2024-01-30T12:48:52;13.80;66.80
21033;DHT22;10675;47.976;7.824;2024-01-30T12:51:18;13.80;65.90
21033;DHT22;10675;47.976;7.824;2024-01-30T12:53:44;13.80;66.70
21033;DHT22;10675;47.976;7.824;2024-01-30T12:56:12;13.80;66.70
21033;DHT22;10675;47.976;7.824;2024-01-30T12:58:37;13.90;66.20
21033;DHT22;10675;47.976;7.824;2024-01-30T13:01:03;14.10;65.60
21033;DHT22;10675;47.976;7.824;2024-01-30T13:03:28;14.00;65.40
21033;DHT22;10675;47.976;7.824;2024-01-30T13:05:55;14.00;66.10
21033;DHT22;10675;47.976;7.824;2024-01-30T13:08:21;14.70;66.80
21033;DHT22;10675;47.976;7.824;2024-01-30T13:10:47;14.20;66.50
21033;DHT22;10675;47.976;7.824;2024-01-30T13:13:12;14.20;66.10
21033;DHT22;10675;47.976;7.824;2024-01-30T13:15:38;14.20;66.20
21033;DHT22;10675;47.976;7.824;2024-01-30T13:18:03;14.20;66.40
21033;DHT22;10675;47.976;7.824;2024-01-30T13:20:30;14.30;66.70
21033;DHT22;10675;47.976;7.824;2024-01-30T13:22:56;14.30;66.50
21033;DHT22;10675;47.976;7.824;2024-01-30T13:25:21;14.30;67.00
21033;DHT22;10675;47.976;7.824;2024-01-30T13:27:47;14.30;67.00
21033;DHT22;10675;47.976;7.824;2024-01-30T13:30:12;14.40;67.80
21033;DHT22;10675;47.976;7.824;2024-01-30T13:32:38;14.40;67.40
21033;DHT22;10675;47.976;7.824;2024-01-30T13:35:04;14.40;67.80
21033;DHT22;10675;47.976;7.824;2024-01-30T13:37:29;14.40;68.40
21033;DHT22;10675;47.976;7.824;2024-01-30T13:39:55;14.40;68.50
21033;DHT22;10675;47.976;7.824;2024-01-30T13:42:22;14.30;68.10
21033;DHT22;10675;47.976;7.824;2024-01-30T13:44:48;14.50;69.00
21033;DHT22;10675;47.976;7.824;2024-01-30T13:47:13;14.50;67.80
21033;DHT22;10675;47.976;7.824;2024-01-30T13:49:39;14.60;67.80
21033;DHT22;10675;47.976;7.824;2024-01-30T13:52:05;14.60;67.60
21033;DHT22;10675;47.976;7.824;2024-01-30T13:54:30;14.70;68.00
21033;DHT22;10675;47.976;7.824;2024-01-30T13:56:57;14.40;67.30
21033;DHT22;10675;47.976;7.824;2024-01-30T13:59:22;14.60;67.80
21033;DHT22;10675;47.976;7.824;2024-01-30T14:01:51;14.60;67.20
21033;DHT22;10675;47.976;7.824;2024-01-30T14:04:16;15.60;97.60
21033;DHT22;10675;47.976;7.824;2024-01-30T14:06:42;16.60;78.90
21033;DHT22;10675;47.976;7.824;2024-01-30T14:09:07;16.40;86.30
21033;DHT22;10675;47.976;7.824;2024-01-30T14:11:33;16.40;73.80
21033;DHT22;10675;47.976;7.824;2024-01-30T14:13:59;15.20;68.50
21033;DHT22;10675;47.976;7.824;2024-01-30T14:16:24;14.60;70.40
21033;DHT22;10675;47.976;7.824;2024-01-30T14:18:50;14.10;71.80
21033;DHT22;10675;47.976;7.824;2024-01-30T14:21:16;13.90;72.90
21033;DHT22;10675;47.976;7.824;2024-01-30T14:23:41;13.80;73.50
21033;DHT22;10675;47.976;7.824;2024-01-30T14:26:07;13.70;73.70
21033;DHT22;10675;47.976;7.824;2024-01-30T14:28:32;13.70;73.90
21033;DHT22;10675;47.976;7.824;2024-01-30T14:30:58;13.70;74.00
21033;DHT22;10675;47.976;7.824;2024-01-30T14:33:24;13.70;73.90
21033;DHT22;10675;47.976;7.824;2024-01-30T14:35:50;13.50;74.30
21033;DHT22;10675;47.976;7.824;2024-01-30T14:38:16;13.50;74.80
21033;DHT22;10675;47.976;7.824;2024-01-30T14:40:41;13.60;74.20
21033;DHT22;10675;47.976;7.824;2024-01-30T14:43:07;13.60;74.40
21033;DHT22;10675;47.976;7.824;2024-01-30T14:45:32;13.60;75.10
21033;DHT22;10675;47.976;7.824;2024-01-30T14:47:59;13.60;75.00
21033;DHT22;10675;47.976;7.824;2024-01-30T14:50:25;13.60;74.90
21033;DHT22;10675;47.976;7.824;2024-01-30T14:52:51;13.60;75.10
21033;DHT22;10675;47.976;7.824;2024-01-30T14:55:17;13.60;74.90
21033;DHT22;10675;47.976;7.824;2024-01-30T14:57:42;13.60;74.80
21033;DHT22;10675;47.976;7.824;2024-01-30T15:00:10;13.60;75.50
21033;DHT22;10675;47.976;7.824;2024-01-30T15:02:36;13.60;75.30
21033;DHT22;10675;47.976;7.824;2024-01-30T15:05:02;13.60;76.50
21033;DHT22;10675;47.976;7.824;2024-01-30T15:07:28;13.60;75.10
21033;DHT22;10675;47.976;7.824;2024-01-30T15:09:54;13.60;75.50
21033;DHT22;10675;47.976;7.824;2024-01-30T15:12:20;13.60;75.00
21033;DHT22;10675;47.976;7.824;2024-01-30T15:14:45;13.60;73.10
21033;DHT22;10675;47.976;7.824;2024-01-30T15:17:17;13.60;73.60
21033;DHT22;10675;47.976;7.824;2024-01-30T15:19:43;13.60;73.20
21033;DHT22;10675;47.976;7.824;2024-01-30T15:22:08;13.60;73.30
21033;DHT22;10675;47.976;7.824;2024-01-30T15:24:34;13.60;72.90
21033;DHT22;10675;47.976;7.824;2024-01-30T15:27:01;13.60;73.30
21033;DHT22;10675;47.976;7.824;2024-01-30T15:29:26;13.60;74.10
21033;DHT22;10675;47.976;7.824;2024-01-30T15:31:52;13.50;74.40
21033;DHT22;10675;47.976;7.824;2024-01-30T15:34:18;13.40;75.40
21033;DHT22;10675;47.976;7.824;2024-01-30T15:36:43;13.40;75.80